sensor_id;sensor_type;location;lat;lon;timestamp;pressure;altitude;pressure_sealevel;temperature;humidity
3294;BME280;1659;51.470;6.770;2023-01-28T00:01:48;102726.13;;;3.12;88.14
3294;BME280;1659;51.470;6.770;2023-01-28T00:04:14;102728.59;;;3.09;88.26
3294;BME280;1659;51.470;6.770;2023-01-28T00:06:41;102729.34;;;3.06;88.25
3294;BME280;1659;51.470;6.770;2023-01-28T00:09:08;102737.13;;;3.05;88.20
3294;BME280;1659;51.470;6.770;2023-01-28T00:11:35;102727.41;;;3.02;88.16
3294;BME280;1659;51.470;6.770;2023-01-28T00:14:01;102729.22;;;3.03;88.13
3294;BME280;1659;51.470;6.770;2023-01-28T00:16:29;102730.88;;;3.01;88.11
3294;BME280;1659;51.470;6.770;2023-01-28T00:18:57;102727.34;;;3.00;88.15
3294;BME280;1659;51.470;6.770;2023-01-28T00:21:23;102722.97;;;2.99;88.21
3294;BME280;1659;51.470;6.770;2023-01-28T00:23:52;102736.84;;;2.98;88.08
3294;BME280;1659;51.470;6.770;2023-01-28T00:26:19;102740.22;;;2.96;87.86
3294;BME280;1659;51.470;6.770;2023-01-28T00:28:46;102734.03;;;2.94;88.14
3294;BME280;1659;51.470;6.770;2023-01-28T00:31:16;102739.25;;;2.94;88.10
3294;BME280;1659;51.470;6.770;2023-01-28T00:33:43;102741.03;;;2.95;88.04
3294;BME280;1659;51.470;6.770;2023-01-28T00:36:20;102730.44;;;2.92;88.08
3294;BME280;1659;51.470;6.770;2023-01-28T00:38:50;102740.84;;;2.90;88.31
3294;BME280;1659;51.470;6.770;2023-01-28T00:41:19;102741.66;;;2.89;88.11
3294;BME280;1659;51.470;6.770;2023-01-28T00:43:47;102747.78;;;2.90;88.20
3294;BME280;1659;51.470;6.770;2023-01-28T00:46:14;102736.44;;;2.89;88.77
3294;BME280;1659;51.470;6.770;2023-01-28T00:48:43;102734.72;;;2.90;88.16
3294;BME280;1659;51.470;6.770;2023-01-28T00:51:11;102731.22;;;2.89;88.23
3294;BME280;1659;51.470;6.770;2023-01-28T00:53:40;102736.44;;;2.89;88.18
3294;BME280;1659;51.470;6.770;2023-01-28T00:56:10;102738.16;;;2.89;88.51
3294;BME280;1659;51.470;6.770;2023-01-28T00:58:36;102732.94;;;2.89;88.22
3294;BME280;1659;51.470;6.770;2023-01-28T01:01:07;102729.50;;;2.90;88.09
3294;BME280;1659;51.470;6.770;2023-01-28T01:03:34;102735.56;;;2.89;88.44
3294;BME280;1659;51.470;6.770;2023-01-28T01:06:01;102739.94;;;2.90;88.38
3294;BME280;1659;51.470;6.770;2023-01-28T01:08:27;102741.59;;;2.88;88.11
3294;BME280;1659;51.470;6.770;2023-01-28T01:11:01;102738.84;;;2.84;88.44
3294;BME280;1659;51.470;6.770;2023-01-28T01:13:28;102725.69;;;2.83;88.15
3294;BME280;1659;51.470;6.770;2023-01-28T01:16:02;102734.31;;;2.80;88.16
3294;BME280;1659;51.470;6.770;2023-01-28T01:18:29;102732.50;;;2.79;88.49
3294;BME280;1659;51.470;6.770;2023-01-28T01:20:55;102736.03;;;2.80;88.24
3294;BME280;1659;51.470;6.770;2023-01-28T01:26:07;102733.34;;;2.78;88.38
3294;BME280;1659;51.470;6.770;2023-01-28T01:28:43;102739.38;;;2.77;88.42
3294;BME280;1659;51.470;6.770;2023-01-28T01:34:05;102743.72;;;2.77;88.40
3294;BME280;1659;51.470;6.770;2023-01-28T01:36:32;102749.75;;;2.76;88.14
3294;BME280;1659;51.470;6.770;2023-01-28T01:38:59;102746.97;;;2.71;88.45
3294;BME280;1659;51.470;6.770;2023-01-28T01:41:29;102753.75;;;2.68;88.04
3294;BME280;1659;51.470;6.770;2023-01-28T01:43:58;102760.56;;;2.64;88.28
3294;BME280;1659;51.470;6.770;2023-01-28T01:46:32;102756.84;;;2.59;88.06
3294;BME280;1659;51.470;6.770;2023-01-28T01:49:06;102766.25;;;2.55;87.73
3294;BME280;1659;51.470;6.770;2023-01-28T01:51:35;102763.50;;;2.52;87.94
3294;BME280;1659;51.470;6.770;2023-01-28T01:54:03;102756.31;;;2.48;87.52
3294;BME280;1659;51.470;6.770;2023-01-28T01:56:37;102767.59;;;2.47;87.71
3294;BME280;1659;51.470;6.770;2023-01-28T01:59:30;102769.31;;;2.47;87.60
3294;BME280;1659;51.470;6.770;2023-01-28T02:02:35;102763.06;;;2.43;87.62
3294;BME280;1659;51.470;6.770;2023-01-28T02:05:32;102775.97;;;2.40;87.82
3294;BME280;1659;51.470;6.770;2023-01-28T02:07:59;102774.16;;;2.39;87.53
3294;BME280;1659;51.470;6.770;2023-01-28T02:10:40;102779.31;;;2.37;87.52
3294;BME280;1659;51.470;6.770;2023-01-28T02:13:07;102784.44;;;2.36;87.53
3294;BME280;1659;51.470;6.770;2023-01-28T02:15:34;102783.50;;;2.34;87.51
3294;BME280;1659;51.470;6.770;2023-01-28T02:18:01;102787.00;;;2.34;87.39
3294;BME280;1659;51.470;6.770;2023-01-28T02:20:38;102787.00;;;2.34;87.46
3294;BME280;1659;51.470;6.770;2023-01-28T02:27:08;102788.63;;;2.32;87.26
3294;BME280;1659;51.470;6.770;2023-01-28T02:29:46;102779.84;;;2.30;87.21
3294;BME280;1659;51.470;6.770;2023-01-28T02:32:19;102784.19;;;2.30;87.26
3294;BME280;1659;51.470;6.770;2023-01-28T02:34:59;102785.81;;;2.28;87.02
3294;BME280;1659;51.470;6.770;2023-01-28T02:38:08;102788.34;;;2.26;87.18
3294;BME280;1659;51.470;6.770;2023-01-28T02:40:42;102790.00;;;2.24;87.23
3294;BME280;1659;51.470;6.770;2023-01-28T02:43:32;102790.88;;;2.24;87.48
3294;BME280;1659;51.470;6.770;2023-01-28T02:46:34;102790.00;;;2.24;86.91
3294;BME280;1659;51.470;6.770;2023-01-28T02:49:23;102789.00;;;2.22;87.50
3294;BME280;1659;51.470;6.770;2023-01-28T02:52:17;102782.81;;;2.20;87.35
3294;BME280;1659;51.470;6.770;2023-01-28T02:55:09;102784.56;;;2.19;87.13
3294;BME280;1659;51.470;6.770;2023-01-28T02:57:43;102787.16;;;2.19;87.40
3294;BME280;1659;51.470;6.770;2023-01-28T03:00:17;102781.13;;;2.20;87.43
3294;BME280;1659;51.470;6.770;2023-01-28T03:02:50;102788.97;;;2.20;87.22
3294;BME280;1659;51.470;6.770;2023-01-28T03:05:27;102779.41;;;2.21;86.87
3294;BME280;1659;51.470;6.770;2023-01-28T03:07:58;102777.69;;;2.21;87.25
3294;BME280;1659;51.470;6.770;2023-01-28T03:10:26;102775.00;;;2.20;86.86
3294;BME280;1659;51.470;6.770;2023-01-28T03:12:54;102776.81;;;2.21;87.23
3294;BME280;1659;51.470;6.770;2023-01-28T03:15:53;102778.44;;;2.19;87.15
3294;BME280;1659;51.470;6.770;2023-01-28T03:18:43;102776.66;;;2.18;86.80
3294;BME280;1659;51.470;6.770;2023-01-28T03:21:29;102766.22;;;2.18;86.73
3294;BME280;1659;51.470;6.770;2023-01-28T03:24:19;102773.16;;;2.17;86.74
3294;BME280;1659;51.470;6.770;2023-01-28T03:27:10;102768.66;;;2.15;87.14
3294;BME280;1659;51.470;6.770;2023-01-28T03:30:24;102765.97;;;2.13;87.14
3294;BME280;1659;51.470;6.770;2023-01-28T03:33:10;102763.44;;;2.15;87.11
3294;BME280;1659;51.470;6.770;2023-01-28T03:35:56;102764.38;;;2.15;87.03
3294;BME280;1659;51.470;6.770;2023-01-28T03:38:40;102770.47;;;2.16;86.95
3294;BME280;1659;51.470;6.770;2023-01-28T03:41:09;102771.34;;;2.16;86.64
3294;BME280;1659;51.470;6.770;2023-01-28T03:43:36;102774.88;;;2.17;86.48
3294;BME280;1659;51.470;6.770;2023-01-28T03:46:03;102778.38;;;2.17;86.94
3294;BME280;1659;51.470;6.770;2023-01-28T03:48:30;102785.34;;;2.18;86.99
3294;BME280;1659;51.470;6.770;2023-01-28T03:50:58;102790.56;;;2.18;86.81
3294;BME280;1659;51.470;6.770;2023-01-28T03:53:25;102784.47;;;2.18;87.07
3294;BME280;1659;51.470;6.770;2023-01-28T03:55:53;102786.28;;;2.19;86.50
3294;BME280;1659;51.470;6.770;2023-01-28T03:58:21;102776.72;;;2.19;87.01
3294;BME280;1659;51.470;6.770;2023-01-28T04:00:51;102787.91;;;2.17;86.81
3294;BME280;1659;51.470;6.770;2023-01-28T04:03:20;102794.03;;;2.17;86.90
3294;BME280;1659;51.470;6.770;2023-01-28T04:05:57;102782.69;;;2.17;86.95
3294;BME280;1659;51.470;6.770;2023-01-28T04:08:25;102787.84;;;2.15;86.38
3294;BME280;1659;51.470;6.770;2023-01-28T04:10:52;102792.13;;;2.15;86.73
3294;BME280;1659;51.470;6.770;2023-01-28T04:13:19;102798.28;;;2.15;86.35
3294;BME280;1659;51.470;6.770;2023-01-28T04:15:46;102792.22;;;2.16;86.49
3294;BME280;1659;51.470;6.770;2023-01-28T04:18:13;102800.88;;;2.15;86.47
3294;BME280;1659;51.470;6.770;2023-01-28T04:20:40;102795.66;;;2.15;86.56
3294;BME280;1659;51.470;6.770;2023-01-28T04:23:06;102801.69;;;2.14;86.47
3294;BME280;1659;51.470;6.770;2023-01-28T04:25:35;102797.28;;;2.13;86.62
3294;BME280;1659;51.470;6.770;2023-01-28T04:28:04;102812.13;;;2.14;85.92
3294;BME280;1659;51.470;6.770;2023-01-28T04:30:31;102799.84;;;2.12;85.92
3294;BME280;1659;51.470;6.770;2023-01-28T04:32:58;102811.09;;;2.11;86.21
3294;BME280;1659;51.470;6.770;2023-01-28T04:35:24;102805.88;;;2.11;86.22
3294;BME280;1659;51.470;6.770;2023-01-28T04:37:51;102812.88;;;2.12;86.12
3294;BME280;1659;51.470;6.770;2023-01-28T04:40:17;102805.06;;;2.12;85.84
3294;BME280;1659;51.470;6.770;2023-01-28T04:42:53;102802.38;;;2.10;86.00
3294;BME280;1659;51.470;6.770;2023-01-28T04:45:20;102801.41;;;2.08;85.95
3294;BME280;1659;51.470;6.770;2023-01-28T04:47:47;102801.16;;;2.03;85.34
3294;BME280;1659;51.470;6.770;2023-01-28T04:50:15;102806.31;;;2.02;85.94
3294;BME280;1659;51.470;6.770;2023-01-28T04:52:42;102804.50;;;2.01;85.61
3294;BME280;1659;51.470;6.770;2023-01-28T04:55:09;102801.00;;;2.00;85.39
3294;BME280;1659;51.470;6.770;2023-01-28T04:57:36;102795.78;;;2.00;85.57
3294;BME280;1659;51.470;6.770;2023-01-28T05:00:05;102798.41;;;2.00;85.46
3294;BME280;1659;51.470;6.770;2023-01-28T05:02:32;102792.31;;;2.00;85.01
3294;BME280;1659;51.470;6.770;2023-01-28T05:04:58;102794.84;;;1.98;85.14
3294;BME280;1659;51.470;6.770;2023-01-28T05:07:29;102786.03;;;1.96;85.03
3294;BME280;1659;51.470;6.770;2023-01-28T05:09:55;102797.28;;;1.95;85.41
3294;BME280;1659;51.470;6.770;2023-01-28T05:12:22;102785.13;;;1.96;84.91
3294;BME280;1659;51.470;6.770;2023-01-28T05:14:48;102785.13;;;1.96;85.15
3294;BME280;1659;51.470;6.770;2023-01-28T05:17:16;102785.13;;;1.96;85.08
3294;BME280;1659;51.470;6.770;2023-01-28T05:19:43;102787.72;;;1.96;85.29
3294;BME280;1659;51.470;6.770;2023-01-28T05:22:10;102787.72;;;1.96;84.86
3294;BME280;1659;51.470;6.770;2023-01-28T05:24:37;102790.34;;;1.96;84.82
3294;BME280;1659;51.470;6.770;2023-01-28T05:27:03;102800.72;;;1.94;84.90
3294;BME280;1659;51.470;6.770;2023-01-28T05:29:31;102797.19;;;1.94;85.09
3294;BME280;1659;51.470;6.770;2023-01-28T05:31:58;102803.34;;;1.94;85.26
3294;BME280;1659;51.470;6.770;2023-01-28T05:34:26;102803.34;;;1.94;84.61
3294;BME280;1659;51.470;6.770;2023-01-28T05:36:53;102802.50;;;1.95;85.19
3294;BME280;1659;51.470;6.770;2023-01-28T05:39:19;102802.41;;;1.94;84.99
3294;BME280;1659;51.470;6.770;2023-01-28T05:41:46;102799.81;;;1.94;84.64
3294;BME280;1659;51.470;6.770;2023-01-28T05:44:12;102805.94;;;1.94;84.52
3294;BME280;1659;51.470;6.770;2023-01-28T05:46:39;102808.56;;;1.94;85.04
3294;BME280;1659;51.470;6.770;2023-01-28T05:49:09;102821.63;;;1.96;85.11
3294;BME280;1659;51.470;6.770;2023-01-28T05:51:39;102831.34;;;1.98;84.74
3294;BME280;1659;51.470;6.770;2023-01-28T05:54:06;102837.44;;;1.99;84.97
3294;BME280;1659;51.470;6.770;2023-01-28T05:56:32;102824.41;;;1.99;84.76
3294;BME280;1659;51.470;6.770;2023-01-28T05:59:00;102818.38;;;2.00;85.08
3294;BME280;1659;51.470;6.770;2023-01-28T06:01:27;102825.31;;;1.99;84.93
3294;BME280;1659;51.470;6.770;2023-01-28T06:03:55;102821.78;;;1.99;84.64
3294;BME280;1659;51.470;6.770;2023-01-28T06:06:21;102816.50;;;1.97;84.79
3294;BME280;1659;51.470;6.770;2023-01-28T06:08:49;102822.47;;;1.95;84.58
3294;BME280;1659;51.470;6.770;2023-01-28T06:11:16;102828.56;;;1.95;84.43
3294;BME280;1659;51.470;6.770;2023-01-28T06:13:42;102827.59;;;1.93;84.43
3294;BME280;1659;51.470;6.770;2023-01-28T06:16:09;102824.91;;;1.92;84.92
3294;BME280;1659;51.470;6.770;2023-01-28T06:18:36;102832.75;;;1.92;85.03
3294;BME280;1659;51.470;6.770;2023-01-28T06:21:02;102824.91;;;1.92;84.91
3294;BME280;1659;51.470;6.770;2023-01-28T06:23:29;102823.19;;;1.92;84.89
3294;BME280;1659;51.470;6.770;2023-01-28T06:25:57;102830.13;;;1.92;84.67
3294;BME280;1659;51.470;6.770;2023-01-28T06:28:24;102828.41;;;1.92;85.07
3294;BME280;1659;51.470;6.770;2023-01-28T06:30:51;102831.84;;;1.91;84.70
3294;BME280;1659;51.470;6.770;2023-01-28T06:33:18;102829.16;;;1.89;84.86
3294;BME280;1659;51.470;6.770;2023-01-28T06:35:45;102833.50;;;1.89;84.95
3294;BME280;1659;51.470;6.770;2023-01-28T06:38:12;102829.97;;;1.88;84.39
3294;BME280;1659;51.470;6.770;2023-01-28T06:40:39;102824.69;;;1.87;84.85
3294;BME280;1659;51.470;6.770;2023-01-28T06:43:07;102826.31;;;1.85;84.41
3294;BME280;1659;51.470;6.770;2023-01-28T06:45:34;102828.03;;;1.84;84.64
3294;BME280;1659;51.470;6.770;2023-01-28T06:48:00;102825.28;;;1.81;84.56
3294;BME280;1659;51.470;6.770;2023-01-28T06:50:27;102826.91;;;1.79;84.46
3294;BME280;1659;51.470;6.770;2023-01-28T06:52:53;102822.47;;;1.77;84.34
3294;BME280;1659;51.470;6.770;2023-01-28T06:55:20;102825.88;;;1.76;84.34
3294;BME280;1659;51.470;6.770;2023-01-28T06:57:46;102828.38;;;1.74;84.41
3294;BME280;1659;51.470;6.770;2023-01-28T07:00:15;102835.31;;;1.74;84.45
3294;BME280;1659;51.470;6.770;2023-01-28T07:02:42;102842.19;;;1.72;84.28
3294;BME280;1659;51.470;6.770;2023-01-28T07:05:09;102839.50;;;1.70;84.47
3294;BME280;1659;51.470;6.770;2023-01-28T07:07:36;102839.50;;;1.70;84.51
3294;BME280;1659;51.470;6.770;2023-01-28T07:10:03;102835.06;;;1.69;84.35
3294;BME280;1659;51.470;6.770;2023-01-28T07:12:29;102844.63;;;1.68;84.61
3294;BME280;1659;51.470;6.770;2023-01-28T07:14:56;102844.63;;;1.68;84.31
3294;BME280;1659;51.470;6.770;2023-01-28T07:17:24;102837.59;;;1.67;84.54
3294;BME280;1659;51.470;6.770;2023-01-28T07:19:50;102838.59;;;1.69;84.28
3294;BME280;1659;51.470;6.770;2023-01-28T07:22:17;102842.00;;;1.68;84.73
3294;BME280;1659;51.470;6.770;2023-01-28T07:24:43;102837.69;;;1.69;84.79
3294;BME280;1659;51.470;6.770;2023-01-28T07:27:10;102833.41;;;1.69;84.29
3294;BME280;1659;51.470;6.770;2023-01-28T07:29:37;102836.00;;;1.69;84.96
3294;BME280;1659;51.470;6.770;2023-01-28T07:32:03;102834.19;;;1.68;83.97
3294;BME280;1659;51.470;6.770;2023-01-28T07:34:32;102844.63;;;1.68;84.38
3294;BME280;1659;51.470;6.770;2023-01-28T07:37:01;102833.22;;;1.66;84.10
3294;BME280;1659;51.470;6.770;2023-01-28T07:39:28;102833.94;;;1.64;84.11
3294;BME280;1659;51.470;6.770;2023-01-28T07:41:55;102840.00;;;1.63;84.10
3294;BME280;1659;51.470;6.770;2023-01-28T07:44:21;102843.41;;;1.62;83.99
3294;BME280;1659;51.470;6.770;2023-01-28T07:46:48;102839.91;;;1.61;83.76
3294;BME280;1659;51.470;6.770;2023-01-28T07:49:14;102853.81;;;1.62;83.63
3294;BME280;1659;51.470;6.770;2023-01-28T07:51:42;102856.53;;;1.63;83.88
3294;BME280;1659;51.470;6.770;2023-01-28T07:54:10;102853.91;;;1.63;84.05
3294;BME280;1659;51.470;6.770;2023-01-28T07:56:37;102868.75;;;1.64;83.83
3294;BME280;1659;51.470;6.770;2023-01-28T07:59:04;102874.84;;;1.65;83.49
3294;BME280;1659;51.470;6.770;2023-01-28T08:01:30;102886.16;;;1.65;83.89
3294;BME280;1659;51.470;6.770;2023-01-28T08:03:57;102895.69;;;1.65;83.31
3294;BME280;1659;51.470;6.770;2023-01-28T08:06:23;102889.66;;;1.66;83.79
3294;BME280;1659;51.470;6.770;2023-01-28T08:08:51;102887.97;;;1.66;83.70
3294;BME280;1659;51.470;6.770;2023-01-28T08:11:18;102890.66;;;1.68;83.73
3294;BME280;1659;51.470;6.770;2023-01-28T08:13:45;102891.69;;;1.72;83.29
3294;BME280;1659;51.470;6.770;2023-01-28T08:16:12;102886.63;;;1.75;83.54
3294;BME280;1659;51.470;6.770;2023-01-28T08:18:38;102885.75;;;1.74;83.76
3294;BME280;1659;51.470;6.770;2023-01-28T08:21:05;102889.31;;;1.76;83.56
3294;BME280;1659;51.470;6.770;2023-01-28T08:23:32;102879.06;;;1.79;83.07
3294;BME280;1659;51.470;6.770;2023-01-28T08:26:01;102887.13;;;1.84;83.71
3294;BME280;1659;51.470;6.770;2023-01-28T08:28:27;102894.28;;;1.88;83.33
3294;BME280;1659;51.470;6.770;2023-01-28T08:30:54;102896.97;;;1.89;82.88
3294;BME280;1659;51.470;6.770;2023-01-28T08:33:21;102891.00;;;1.92;82.65
3294;BME280;1659;51.470;6.770;2023-01-28T08:35:48;102906.72;;;1.94;82.91
3294;BME280;1659;51.470;6.770;2023-01-28T08:38:14;102917.22;;;1.95;82.66
3294;BME280;1659;51.470;6.770;2023-01-28T08:40:44;102922.53;;;1.97;82.95
3294;BME280;1659;51.470;6.770;2023-01-28T08:43:12;102930.34;;;1.97;82.84
3294;BME280;1659;51.470;6.770;2023-01-28T08:45:39;102928.63;;;1.97;83.05
3294;BME280;1659;51.470;6.770;2023-01-28T08:48:09;102940.06;;;1.99;82.96
3294;BME280;1659;51.470;6.770;2023-01-28T08:50:37;102936.53;;;1.99;82.87
3294;BME280;1659;51.470;6.770;2023-01-28T08:53:06;102943.47;;;1.98;82.87
3294;BME280;1659;51.470;6.770;2023-01-28T08:55:33;102956.59;;;2.00;82.98
3294;BME280;1659;51.470;6.770;2023-01-28T08:58:01;102955.84;;;2.02;83.15
3294;BME280;1659;51.470;6.770;2023-01-28T09:00:29;102953.31;;;2.04;83.04
3294;BME280;1659;51.470;6.770;2023-01-28T09:02:56;102952.50;;;2.05;83.01
3294;BME280;1659;51.470;6.770;2023-01-28T09:05:23;102951.69;;;2.06;82.59
3294;BME280;1659;51.470;6.770;2023-01-28T09:07:49;102959.59;;;2.07;82.73
3294;BME280;1659;51.470;6.770;2023-01-28T09:10:16;102971.00;;;2.10;82.99
3294;BME280;1659;51.470;6.770;2023-01-28T09:12:44;102976.16;;;2.08;82.52
3294;BME280;1659;51.470;6.770;2023-01-28T09:15:11;102973.53;;;2.08;82.33
3294;BME280;1659;51.470;6.770;2023-01-28T09:17:39;102976.97;;;2.07;82.28
3294;BME280;1659;51.470;6.770;2023-01-28T09:20:07;102962.28;;;2.09;82.35
3294;BME280;1659;51.470;6.770;2023-01-28T09:22:34;102971.06;;;2.11;82.17
3294;BME280;1659;51.470;6.770;2023-01-28T09:25:01;102976.28;;;2.11;81.93
3294;BME280;1659;51.470;6.770;2023-01-28T09:27:28;102980.69;;;2.12;82.17
3294;BME280;1659;51.470;6.770;2023-01-28T09:29:55;102982.47;;;2.13;82.19
3294;BME280;1659;51.470;6.770;2023-01-28T09:32:21;102979.06;;;2.14;82.54
3294;BME280;1659;51.470;6.770;2023-01-28T09:34:50;102980.78;;;2.14;82.11
3294;BME280;1659;51.470;6.770;2023-01-28T09:37:17;102993.91;;;2.15;82.42
3294;BME280;1659;51.470;6.770;2023-01-28T09:39:43;102993.00;;;2.15;82.09
3294;BME280;1659;51.470;6.770;2023-01-28T09:42:33;103007.09;;;2.18;82.32
3294;BME280;1659;51.470;6.770;2023-01-28T09:45:05;102989.97;;;2.23;81.76
3294;BME280;1659;51.470;6.770;2023-01-28T09:47:37;102990.38;;;2.31;82.12
3294;BME280;1659;51.470;6.770;2023-01-28T09:50:11;102990.84;;;2.40;81.70
3294;BME280;1659;51.470;6.770;2023-01-28T09:52:40;102976.53;;;2.50;81.22
3294;BME280;1659;51.470;6.770;2023-01-28T09:55:14;102980.56;;;2.61;81.26
3294;BME280;1659;51.470;6.770;2023-01-28T09:57:44;102981.09;;;2.72;81.09
3294;BME280;1659;51.470;6.770;2023-01-28T10:00:14;102981.56;;;2.81;80.85
3294;BME280;1659;51.470;6.770;2023-01-28T10:02:59;102986.09;;;2.86;80.95
3294;BME280;1659;51.470;6.770;2023-01-28T10:05:35;102984.63;;;2.91;81.46
3294;BME280;1659;51.470;6.770;2023-01-28T10:08:19;102987.47;;;2.95;81.25
3294;BME280;1659;51.470;6.770;2023-01-28T10:10:55;102982.16;;;2.94;81.08
3294;BME280;1659;51.470;6.770;2023-01-28T10:13:34;102983.41;;;2.84;80.90
3294;BME280;1659;51.470;6.770;2023-01-28T10:16:11;102979.84;;;2.82;81.38
3294;BME280;1659;51.470;6.770;2023-01-28T10:18:46;102975.81;;;2.89;81.24
3294;BME280;1659;51.470;6.770;2023-01-28T10:21:20;102965.56;;;2.93;80.73
3294;BME280;1659;51.470;6.770;2023-01-28T10:23:57;102954.38;;;2.96;80.36
3294;BME280;1659;51.470;6.770;2023-01-28T10:26:30;102962.31;;;2.97;80.33
3294;BME280;1659;51.470;6.770;2023-01-28T10:29:03;102973.88;;;3.02;80.34
3294;BME280;1659;51.470;6.770;2023-01-28T10:31:33;102964.53;;;3.08;80.00
3294;BME280;1659;51.470;6.770;2023-01-28T10:34:01;102965.56;;;3.11;80.33
3294;BME280;1659;51.470;6.770;2023-01-28T10:36:30;102973.53;;;3.14;80.38
3294;BME280;1659;51.470;6.770;2023-01-28T10:38:57;102964.06;;;3.16;79.89
3294;BME280;1659;51.470;6.770;2023-01-28T10:41:24;102974.53;;;3.16;79.91
3294;BME280;1659;51.470;6.770;2023-01-28T10:43:51;102970.25;;;3.18;80.09
3294;BME280;1659;51.470;6.770;2023-01-28T10:46:20;102981.44;;;3.16;79.48
3294;BME280;1659;51.470;6.770;2023-01-28T10:48:54;102990.72;;;3.09;78.24
3294;BME280;1659;51.470;6.770;2023-01-28T10:51:31;102990.28;;;3.00;78.68
3294;BME280;1659;51.470;6.770;2023-01-28T10:53:58;102989.91;;;2.92;78.60
3294;BME280;1659;51.470;6.770;2023-01-28T10:56:27;102992.38;;;2.89;79.26
3294;BME280;1659;51.470;6.770;2023-01-28T10:58:58;102989.53;;;2.84;79.26
3294;BME280;1659;51.470;6.770;2023-01-28T11:01:37;102991.16;;;2.82;79.05
3294;BME280;1659;51.470;6.770;2023-01-28T11:04:04;102984.97;;;2.80;79.09
3294;BME280;1659;51.470;6.770;2023-01-28T11:06:33;102997.22;;;2.81;79.55
3294;BME280;1659;51.470;6.770;2023-01-28T11:08:59;102998.94;;;2.81;79.10
3294;BME280;1659;51.470;6.770;2023-01-28T11:11:27;103000.56;;;2.79;79.11
3294;BME280;1659;51.470;6.770;2023-01-28T11:13:54;103011.03;;;2.79;79.10
3294;BME280;1659;51.470;6.770;2023-01-28T11:16:23;103004.91;;;2.78;79.23
3294;BME280;1659;51.470;6.770;2023-01-28T11:18:52;103001.19;;;2.73;79.18
3294;BME280;1659;51.470;6.770;2023-01-28T11:21:20;102999.28;;;2.71;79.33
3294;BME280;1659;51.470;6.770;2023-01-28T11:23:52;103001.78;;;2.68;79.20
3294;BME280;1659;51.470;6.770;2023-01-28T11:26:22;102996.47;;;2.66;79.43
3294;BME280;1659;51.470;6.770;2023-01-28T11:28:51;102997.28;;;2.65;78.98
3294;BME280;1659;51.470;6.770;2023-01-28T11:31:20;102990.94;;;2.60;79.43
3294;BME280;1659;51.470;6.770;2023-01-28T11:33:50;102983.19;;;2.61;79.05
3294;BME280;1659;51.470;6.770;2023-01-28T11:36:20;102982.44;;;2.64;79.19
3294;BME280;1659;51.470;6.770;2023-01-28T11:38:53;102986.03;;;2.66;79.43
3294;BME280;1659;51.470;6.770;2023-01-28T11:41:26;102996.69;;;2.71;79.47
3294;BME280;1659;51.470;6.770;2023-01-28T11:43:53;102988.19;;;2.75;79.27
3294;BME280;1659;51.470;6.770;2023-01-28T11:46:39;102986.38;;;2.74;79.12
3294;BME280;1659;51.470;6.770;2023-01-28T11:49:18;102989.59;;;2.68;79.71
3294;BME280;1659;51.470;6.770;2023-01-28T11:51:55;102984.00;;;2.60;78.98
3294;BME280;1659;51.470;6.770;2023-01-28T11:54:35;102978.47;;;2.54;79.08
3294;BME280;1659;51.470;6.770;2023-01-28T11:57:18;102976.53;;;2.50;79.26
3294;BME280;1659;51.470;6.770;2023-01-28T12:00:05;102970.56;;;2.53;79.52
3294;BME280;1659;51.470;6.770;2023-01-28T12:02:52;102965.50;;;2.56;79.56
3294;BME280;1659;51.470;6.770;2023-01-28T12:05:37;102957.00;;;2.60;79.80
3294;BME280;1659;51.470;6.770;2023-01-28T12:08:09;102958.03;;;2.63;79.86
3294;BME280;1659;51.470;6.770;2023-01-28T12:10:44;102948.50;;;2.64;80.03
3294;BME280;1659;51.470;6.770;2023-01-28T12:13:38;102952.09;;;2.66;79.69
3294;BME280;1659;51.470;6.770;2023-01-28T12:16:26;102943.66;;;2.72;79.83
3294;BME280;1659;51.470;6.770;2023-01-28T12:19:15;102923.81;;;2.75;79.57
3294;BME280;1659;51.470;6.770;2023-01-28T12:22:19;102936.13;;;2.78;79.29
3294;BME280;1659;51.470;6.770;2023-01-28T12:27:49;102929.94;;;2.94;78.52
3294;BME280;1659;51.470;6.770;2023-01-28T12:30:24;102917.91;;;2.97;78.50
3294;BME280;1659;51.470;6.770;2023-01-28T12:33:06;102918.16;;;3.03;78.73
3294;BME280;1659;51.470;6.770;2023-01-28T12:35:48;102890.78;;;3.13;78.95
3294;BME280;1659;51.470;6.770;2023-01-28T12:38:23;102874.69;;;3.24;78.83
3294;BME280;1659;51.470;6.770;2023-01-28T12:40:56;102860.59;;;3.39;78.81
3294;BME280;1659;51.470;6.770;2023-01-28T12:43:40;102848.78;;;3.48;78.38
3294;BME280;1659;51.470;6.770;2023-01-28T12:46:14;102840.13;;;3.70;78.52
3294;BME280;1659;51.470;6.770;2023-01-28T12:48:45;102825.06;;;4.27;78.47
3294;BME280;1659;51.470;6.770;2023-01-28T12:51:14;102842.25;;;5.11;78.15
3294;BME280;1659;51.470;6.770;2023-01-28T12:53:46;102832.72;;;6.13;77.38
3294;BME280;1659;51.470;6.770;2023-01-28T12:56:17;102829.13;;;6.94;75.62
3294;BME280;1659;51.470;6.770;2023-01-28T12:58:51;102846.91;;;7.66;73.85
3294;BME280;1659;51.470;6.770;2023-01-28T13:01:24;102848.09;;;8.47;73.26
3294;BME280;1659;51.470;6.770;2023-01-28T13:03:59;102844.38;;;9.20;72.11
3294;BME280;1659;51.470;6.770;2023-01-28T13:06:31;102854.16;;;9.71;70.80
3294;BME280;1659;51.470;6.770;2023-01-28T13:09:01;102865.88;;;10.34;70.59
3294;BME280;1659;51.470;6.770;2023-01-28T13:11:34;102853.41;;;10.85;69.33
3294;BME280;1659;51.470;6.770;2023-01-28T13:14:03;102841.47;;;11.21;68.85
3294;BME280;1659;51.470;6.770;2023-01-28T13:16:31;102846.84;;;11.26;68.73
3294;BME280;1659;51.470;6.770;2023-01-28T13:19:35;102845.13;;;11.31;68.75
3294;BME280;1659;51.470;6.770;2023-01-28T13:22:09;102848.34;;;11.05;69.21
3294;BME280;1659;51.470;6.770;2023-01-28T13:24:36;102852.81;;;11.08;69.57
3294;BME280;1659;51.470;6.770;2023-01-28T13:27:11;102858.16;;;11.14;69.17
3294;BME280;1659;51.470;6.770;2023-01-28T13:29:46;102859.88;;;11.10;69.53
3294;BME280;1659;51.470;6.770;2023-01-28T13:32:29;102869.25;;;10.85;68.86
3294;BME280;1659;51.470;6.770;2023-01-28T13:34:58;102875.44;;;10.29;69.33
3294;BME280;1659;51.470;6.770;2023-01-28T13:37:29;102868.31;;;9.75;69.83
3294;BME280;1659;51.470;6.770;2023-01-28T13:40:01;102858.69;;;9.31;70.42
3294;BME280;1659;51.470;6.770;2023-01-28T13:42:29;102869.31;;;8.92;70.81
3294;BME280;1659;51.470;6.770;2023-01-28T13:45:19;102876.72;;;8.35;70.94
3294;BME280;1659;51.470;6.770;2023-01-28T13:47:48;102879.75;;;7.81;71.43
3294;BME280;1659;51.470;6.770;2023-01-28T13:50:18;102887.41;;;7.40;72.03
3294;BME280;1659;51.470;6.770;2023-01-28T13:52:50;102885.56;;;7.07;72.18
3294;BME280;1659;51.470;6.770;2023-01-28T13:55:21;102885.44;;;6.73;72.02
3294;BME280;1659;51.470;6.770;2023-01-28T14:01:18;102895.66;;;6.11;72.51